createdAt,value
2018-11-21T00:00:13.989Z,2.36
2018-11-21T00:02:42.809Z,2.38
2018-11-21T00:05:11.632Z,2.49
2018-11-21T00:07:40.535Z,2.40
2018-11-21T00:10:10.752Z,2.36
2018-11-21T00:12:39.965Z,2.41
2018-11-21T00:15:10.118Z,2.28
2018-11-21T00:17:39.202Z,2.27
2018-11-21T00:20:09.861Z,2.26
2018-11-21T00:22:38.476Z,2.30
2018-11-21T00:25:07.084Z,2.30
2018-11-21T00:27:35.676Z,2.25
2018-11-21T00:30:04.470Z,2.20
2018-11-21T00:32:33.573Z,2.16
2018-11-21T00:35:02.091Z,2.11
2018-11-21T00:37:30.589Z,1.99
2018-11-21T00:39:59.066Z,2.03
2018-11-21T00:42:27.518Z,2.04
2018-11-21T00:44:56.182Z,1.96
2018-11-21T00:47:25.179Z,1.85
2018-11-21T00:49:54.001Z,1.80
2018-11-21T00:52:23.089Z,1.74
2018-11-21T00:54:52.059Z,1.72
2018-11-21T00:57:21.318Z,1.65
2018-11-21T00:59:49.826Z,1.62
2018-11-21T01:02:18.622Z,1.49
2018-11-21T01:04:47.464Z,1.48
2018-11-21T01:07:16.100Z,1.42
2018-11-21T01:09:44.586Z,1.42
2018-11-21T01:12:13.097Z,1.42
2018-11-21T01:14:41.845Z,1.37
2018-11-21T01:17:10.328Z,1.39
2018-11-21T01:19:39.013Z,1.28
2018-11-21T01:22:07.484Z,1.30
2018-11-21T01:24:35.988Z,1.29
2018-11-21T01:27:04.477Z,1.27
2018-11-21T01:29:33.275Z,1.30
2018-11-21T01:32:01.767Z,1.23
2018-11-21T01:34:30.639Z,1.26
2018-11-21T01:36:59.508Z,1.31
2018-11-21T01:39:28.334Z,1.19
2018-11-21T01:41:56.804Z,1.28
2018-11-21T01:44:25.293Z,1.25
2018-11-21T01:46:53.760Z,1.26
2018-11-21T01:49:22.656Z,1.21
2018-11-21T01:51:51.786Z,1.23
2018-11-21T01:54:20.686Z,1.19
2018-11-21T01:56:49.232Z,1.18
2018-11-21T01:59:17.724Z,1.16
2018-11-21T02:01:46.394Z,1.15
2018-11-21T02:04:15.181Z,1.20
2018-11-21T02:06:44.009Z,1.27
2018-11-21T02:09:13.238Z,1.28
2018-11-21T02:11:42.098Z,1.17
2018-11-21T02:14:11.426Z,1.23
2018-11-21T02:16:39.967Z,1.22
2018-11-21T02:19:08.566Z,1.13
2018-11-21T02:21:37.686Z,1.24
2018-11-21T02:24:06.215Z,1.23
2018-11-21T02:26:34.733Z,1.17
2018-11-21T02:29:03.207Z,1.17
2018-11-21T02:31:32.080Z,1.20
2018-11-21T02:34:01.064Z,1.21
2018-11-21T02:36:29.727Z,1.21
2018-11-21T02:38:58.409Z,1.14
2018-11-21T02:41:26.901Z,1.07
2018-11-21T02:43:55.595Z,1.14
2018-11-21T02:46:24.208Z,1.13
2018-11-21T02:48:52.660Z,1.06
2018-11-21T02:51:21.877Z,1.12
2018-11-21T02:53:50.623Z,1.07
2018-11-21T02:56:19.855Z,1.03
2018-11-21T02:58:48.311Z,1.04
2018-11-21T03:01:16.856Z,0.97
2018-11-21T03:03:45.788Z,0.93
2018-11-21T03:06:14.275Z,0.90
2018-11-21T03:08:43.156Z,1.00
2018-11-21T03:11:11.598Z,0.99
2018-11-21T03:13:40.224Z,1.05
2018-11-21T03:16:08.694Z,0.90
2018-11-21T03:18:37.194Z,1.03
2018-11-21T03:21:05.683Z,1.20
2018-11-21T03:23:34.110Z,1.32
2018-11-21T03:26:02.675Z,1.46
2018-11-21T03:28:31.624Z,1.53
2018-11-21T03:31:00.425Z,1.68
2018-11-21T03:33:28.860Z,1.82
2018-11-21T03:35:57.396Z,1.84
2018-11-21T03:38:25.949Z,1.93
2018-11-21T03:40:55.105Z,1.94
2018-11-21T03:43:24.334Z,2.02
2018-11-21T03:45:52.787Z,2.04
2018-11-21T03:48:21.712Z,2.10
2018-11-21T03:50:50.572Z,2.12
2018-11-21T03:53:19.485Z,2.23
2018-11-21T03:55:48.153Z,2.22
2018-11-21T03:58:16.613Z,2.22
2018-11-21T04:00:45.384Z,2.21
2018-11-21T04:03:13.996Z,2.22
2018-11-21T04:05:42.460Z,2.26
2018-11-21T04:08:11.333Z,2.23
2018-11-21T04:10:39.892Z,2.29
2018-11-21T04:13:08.683Z,2.31
2018-11-21T04:15:37.471Z,2.25
2018-11-21T04:18:06.393Z,2.31
2018-11-21T04:20:35.228Z,2.39
2018-11-21T04:23:05.016Z,2.36
2018-11-21T04:25:33.471Z,2.34
2018-11-21T04:28:02.060Z,2.33
2018-11-21T04:30:30.518Z,2.39
2018-11-21T04:32:59.049Z,2.38
2018-11-21T04:35:27.917Z,2.31
2018-11-21T04:37:56.821Z,2.41
2018-11-21T04:40:25.385Z,2.43
2018-11-21T04:42:54.714Z,2.43
2018-11-21T04:45:23.173Z,2.39
2018-11-21T04:47:51.632Z,2.33
2018-11-21T04:50:20.153Z,2.43
2018-11-21T04:52:48.972Z,2.36
2018-11-21T04:55:17.685Z,2.35
2018-11-21T04:57:46.625Z,2.41
2018-11-21T05:00:15.197Z,2.52
2018-11-21T05:02:43.707Z,2.50
2018-11-21T05:05:12.520Z,2.38
2018-11-21T05:07:41.305Z,2.46
2018-11-21T05:10:09.809Z,2.56
2018-11-21T05:12:38.818Z,2.40
2018-11-21T05:15:08.887Z,2.33
2018-11-21T05:17:37.385Z,2.34
2018-11-21T05:20:06.192Z,2.37
2018-11-21T05:22:34.788Z,2.33
2018-11-21T05:25:03.409Z,2.34
2018-11-21T05:27:31.991Z,2.51
2018-11-21T05:30:00.441Z,2.56
2018-11-21T05:32:29.078Z,2.60
2018-11-21T05:34:57.646Z,2.43
2018-11-21T05:37:26.090Z,2.60
2018-11-21T05:39:54.553Z,2.57
2018-11-21T05:42:23.103Z,2.55
2018-11-21T05:44:51.629Z,2.46
2018-11-21T05:47:20.159Z,2.62
2018-11-21T05:49:49.419Z,2.56
2018-11-21T05:52:17.423Z,2.47
2018-11-21T05:54:45.945Z,2.44
2018-11-21T05:57:15.725Z,2.49
2018-11-21T05:59:44.236Z,2.55
2018-11-21T06:02:12.676Z,2.51
2018-11-21T06:04:41.423Z,2.39
2018-11-21T06:07:10.235Z,2.49
2018-11-21T06:09:38.764Z,2.46
2018-11-21T06:12:07.317Z,2.28
2018-11-21T06:14:35.839Z,2.39
2018-11-21T06:17:04.283Z,2.48
2018-11-21T06:19:32.843Z,2.50
2018-11-21T06:22:01.378Z,2.35
2018-11-21T06:24:29.832Z,2.46
2018-11-21T06:27:00.033Z,2.51
2018-11-21T06:29:28.627Z,2.50
2018-11-21T06:31:57.197Z,2.46
2018-11-21T06:34:29.116Z,2.49
2018-11-21T06:36:54.537Z,2.44
2018-11-21T06:39:23.253Z,2.52
2018-11-21T06:41:51.709Z,2.49
2018-11-21T06:44:20.163Z,2.53
2018-11-21T06:46:49.091Z,2.53
2018-11-21T06:49:17.538Z,2.44
2018-11-21T06:51:46.100Z,2.44
2018-11-21T06:54:14.995Z,2.41
2018-11-21T06:56:44.603Z,2.40
2018-11-21T06:59:12.107Z,2.39
2018-11-21T07:01:40.635Z,2.39
2018-11-21T07:04:09.153Z,2.34
2018-11-21T07:06:37.621Z,2.40
2018-11-21T07:09:10.513Z,2.39
2018-11-21T07:11:40.325Z,2.38
2018-11-21T07:14:09.167Z,2.43
2018-11-21T07:16:38.734Z,2.39
2018-11-21T07:19:07.231Z,2.40
2018-11-21T07:21:36.123Z,2.32
2018-11-21T07:24:04.963Z,2.33
2018-11-21T07:26:33.835Z,2.49
2018-11-21T07:29:02.393Z,2.49
2018-11-21T07:31:30.922Z,2.54
2018-11-21T07:33:59.494Z,2.54
2018-11-21T07:36:28.092Z,2.52
2018-11-21T07:38:56.552Z,2.53
2018-11-21T07:41:25.033Z,2.58
2018-11-21T07:43:54.479Z,2.57
2018-11-21T07:46:22.954Z,2.57
2018-11-21T07:48:51.425Z,2.56
2018-11-21T07:51:20.214Z,2.50
2018-11-21T07:53:48.747Z,2.55
2018-11-21T07:56:54.645Z,2.48
2018-11-21T07:59:23.298Z,2.57
2018-11-21T08:02:10.791Z,2.62
2018-11-21T08:04:52.401Z,2.63
2018-11-21T08:07:51.743Z,2.57
2018-11-21T08:10:48.614Z,2.59
2018-11-21T08:13:35.052Z,2.64
2018-11-21T08:16:22.590Z,2.77
2018-11-21T08:19:10.083Z,2.74
2018-11-21T08:22:12.729Z,2.71
2018-11-21T08:25:00.656Z,2.63
2018-11-21T08:27:46.542Z,2.79
2018-11-21T08:30:15.068Z,2.83
2018-11-21T08:32:44.431Z,2.82
2018-11-21T08:35:12.075Z,2.91
2018-11-21T08:37:40.868Z,2.88
2018-11-21T08:40:09.380Z,2.89
2018-11-21T08:42:37.823Z,2.94
2018-11-21T08:45:06.924Z,2.91
2018-11-21T08:47:35.509Z,2.82
2018-11-21T08:50:04.415Z,2.92
2018-11-21T08:52:33.118Z,3.05
2018-11-21T08:55:01.585Z,3.13
2018-11-21T08:57:30.030Z,3.10
2018-11-21T08:59:58.554Z,3.04
2018-11-21T09:02:27.206Z,3.26
2018-11-21T09:04:55.788Z,3.13
2018-11-21T09:07:24.753Z,3.15
2018-11-21T09:09:53.219Z,3.16
2018-11-21T09:12:21.843Z,3.24
2018-11-21T09:14:50.336Z,3.24
2018-11-21T09:17:18.866Z,3.23
2018-11-21T09:19:47.287Z,3.32
2018-11-21T09:22:15.958Z,3.35
2018-11-21T09:24:44.538Z,3.45
2018-11-21T09:27:13.047Z,3.45
2018-11-21T09:29:41.534Z,3.45
2018-11-21T09:32:09.981Z,3.41
2018-11-21T09:34:38.522Z,3.53
2018-11-21T09:37:06.950Z,3.70
2018-11-21T09:39:35.405Z,3.60
2018-11-21T09:42:03.915Z,3.71
2018-11-21T09:44:33.301Z,3.59
2018-11-21T09:47:01.819Z,3.64
2018-11-21T09:49:30.685Z,3.73
2018-11-21T09:51:59.204Z,3.65
2018-11-21T09:54:28.045Z,3.56
2018-11-21T09:56:57.181Z,3.63
2018-11-21T09:59:25.626Z,3.69
2018-11-21T10:02:30.085Z,3.87
2018-11-21T10:04:58.882Z,3.99
2018-11-21T10:07:27.328Z,4.08
2018-11-21T10:09:56.148Z,3.95
2018-11-21T10:12:24.932Z,4.03
2018-11-21T10:14:53.550Z,4.36
2018-11-21T10:17:22.009Z,4.24
2018-11-21T10:19:50.809Z,4.09
2018-11-21T10:22:19.332Z,3.89
2018-11-21T10:24:48.157Z,3.96
2018-11-21T10:27:17.046Z,3.98
2018-11-21T10:29:45.505Z,4.07
2018-11-21T10:32:13.977Z,4.14
2018-11-21T10:34:42.551Z,4.08
2018-11-21T10:37:11.046Z,4.38
2018-11-21T10:39:39.542Z,4.38
2018-11-21T10:42:08.057Z,4.45
2018-11-21T10:44:36.509Z,4.62
2018-11-21T10:47:05.471Z,4.48
2018-11-21T10:49:33.944Z,4.06
2018-11-21T10:52:02.395Z,4.31
2018-11-21T10:54:30.859Z,4.14
2018-11-21T10:56:59.667Z,4.54
2018-11-21T10:59:28.184Z,4.10
2018-11-21T11:02:13.879Z,4.16
2018-11-21T11:04:47.179Z,4.04
2018-11-21T11:07:36.171Z,4.17
2018-11-21T11:10:19.437Z,4.02
2018-11-21T11:13:18.586Z,4.16
2018-11-21T11:16:04.556Z,4.23
2018-11-21T11:19:07.069Z,4.18
2018-11-21T11:21:53.187Z,4.29
2018-11-21T11:24:55.677Z,4.49
2018-11-21T11:27:41.711Z,4.41
2018-11-21T11:30:19.483Z,4.53
2018-11-21T11:33:05.439Z,4.74
2018-11-21T11:35:51.816Z,4.73
2018-11-21T11:38:47.982Z,5.00
2018-11-21T11:41:50.366Z,4.60
2018-11-21T11:44:36.394Z,4.47
2018-11-21T11:47:41.880Z,4.54
2018-11-21T11:50:29.454Z,4.58
2018-11-21T11:53:29.017Z,4.74
2018-11-21T11:56:15.482Z,4.95
2018-11-21T11:59:02.065Z,4.88
2018-11-21T12:01:49.815Z,4.94
2018-11-21T12:04:32.608Z,4.81
2018-11-21T12:07:20.179Z,4.95
2018-11-21T12:10:16.476Z,4.84
2018-11-21T12:13:03.039Z,5.05
2018-11-21T12:15:48.825Z,4.96
2018-11-21T12:18:39.275Z,5.07
2018-11-21T12:21:29.547Z,4.68
2018-11-21T12:24:10.295Z,4.79
2018-11-21T12:26:48.369Z,4.69
2018-11-21T12:29:36.508Z,4.66
2018-11-21T12:32:33.448Z,4.62
2018-11-21T12:35:16.592Z,4.38
2018-11-21T12:38:18.944Z,4.43
2018-11-21T12:41:00.320Z,4.49
2018-11-21T12:43:46.455Z,4.63
2018-11-21T12:46:42.642Z,4.71
2018-11-21T12:49:30.657Z,4.63
2018-11-21T12:52:16.701Z,4.50
2018-11-21T12:55:22.525Z,4.55
2018-11-21T12:58:13.110Z,4.52
2018-11-21T13:00:58.286Z,4.52
2018-11-21T13:03:44.012Z,4.47
2018-11-21T13:06:31.670Z,4.49
2018-11-21T13:09:17.987Z,4.46
2018-11-21T13:12:04.102Z,4.60
2018-11-21T13:14:43.593Z,4.44
2018-11-21T13:17:30.130Z,4.66
2018-11-21T13:20:08.056Z,4.50
2018-11-21T13:23:01.652Z,4.65
2018-11-21T13:25:51.774Z,4.75
2018-11-21T13:28:41.172Z,5.03
2018-11-21T13:31:40.829Z,4.93
2018-11-21T13:34:32.171Z,4.97
2018-11-21T13:37:18.343Z,5.01
2018-11-21T13:40:07.216Z,5.03
2018-11-21T13:42:54.778Z,5.25
2018-11-21T13:46:00.137Z,5.32
2018-11-21T13:48:39.856Z,4.98
2018-11-21T13:51:25.920Z,4.74
2018-11-21T13:54:19.441Z,4.85
2018-11-21T13:56:48.917Z,4.63
2018-11-21T13:59:17.442Z,4.66
2018-11-21T14:01:45.947Z,4.63
2018-11-21T14:04:14.491Z,4.64
2018-11-21T14:06:42.936Z,4.63
2018-11-21T14:09:12.684Z,4.46
2018-11-21T14:11:41.623Z,4.47
2018-11-21T14:14:10.433Z,4.44
2018-11-21T14:16:39.205Z,4.35
2018-11-21T14:19:07.898Z,4.41
2018-11-21T14:21:36.659Z,4.25
2018-11-21T14:24:05.266Z,4.33
2018-11-21T14:26:34.113Z,4.16
2018-11-21T14:29:02.567Z,4.22
2018-11-21T14:31:31.168Z,4.07
2018-11-21T14:33:59.984Z,4.07
2018-11-21T14:36:28.651Z,4.18
2018-11-21T14:38:57.152Z,4.12
2018-11-21T14:41:26.075Z,4.08
2018-11-21T14:43:54.607Z,4.05
2018-11-21T14:46:23.074Z,3.82
2018-11-21T14:48:51.720Z,3.86
2018-11-21T14:51:20.808Z,3.91
2018-11-21T14:53:49.324Z,3.91
2018-11-21T14:56:17.814Z,3.95
2018-11-21T14:58:46.295Z,3.91
2018-11-21T15:01:15.148Z,3.91
2018-11-21T15:03:43.633Z,3.92
2018-11-21T15:06:12.522Z,3.81
2018-11-21T15:08:40.971Z,3.89
2018-11-21T15:11:09.467Z,3.80
2018-11-21T15:13:38.323Z,3.85
2018-11-21T15:16:06.870Z,3.73
2018-11-21T15:18:35.423Z,3.84
2018-11-21T15:21:04.096Z,3.73
2018-11-21T15:23:32.628Z,3.71
2018-11-21T15:26:01.678Z,3.74
2018-11-21T15:28:30.539Z,3.71
2018-11-21T15:30:59.259Z,3.60
2018-11-21T15:33:28.407Z,3.56
2018-11-21T15:35:56.890Z,3.63
2018-11-21T15:38:25.733Z,3.46
2018-11-21T15:40:54.289Z,3.73
2018-11-21T15:43:22.736Z,3.69
2018-11-21T15:45:51.305Z,3.65
2018-11-21T15:48:19.869Z,3.63
2018-11-21T15:50:48.769Z,3.70
2018-11-21T15:53:17.279Z,3.60
2018-11-21T15:55:45.915Z,3.59
2018-11-21T15:58:14.835Z,3.59
2018-11-21T16:00:43.345Z,3.55
2018-11-21T16:03:12.307Z,3.55
2018-11-21T16:05:40.885Z,3.36
2018-11-21T16:08:09.505Z,3.31
2018-11-21T16:10:42.902Z,3.21
2018-11-21T16:13:11.956Z,3.22
2018-11-21T16:15:45.684Z,3.11
2018-11-21T16:18:14.680Z,2.93
2018-11-21T16:20:43.175Z,2.82
2018-11-21T16:23:13.303Z,2.78
2018-11-21T16:25:42.214Z,2.75
2018-11-21T16:28:10.725Z,2.72
2018-11-21T16:30:39.528Z,2.68
2018-11-21T16:33:08.003Z,2.67
2018-11-21T16:35:36.549Z,2.64
2018-11-21T16:38:05.180Z,2.60
2018-11-21T16:40:34.624Z,2.53
2018-11-21T16:43:03.126Z,2.49
2018-11-21T16:45:33.484Z,2.45
2018-11-21T16:48:01.974Z,2.46
2018-11-21T16:50:30.573Z,2.44
2018-11-21T16:52:59.399Z,2.28
2018-11-21T16:55:28.387Z,2.18
2018-11-21T16:57:57.737Z,2.24
2018-11-21T17:00:27.674Z,2.23
2018-11-21T17:02:56.688Z,2.34
2018-11-21T17:05:26.210Z,2.30
2018-11-21T17:07:55.181Z,2.25
2018-11-21T17:10:25.493Z,2.27
2018-11-21T17:12:54.166Z,2.24
2018-11-21T17:15:27.823Z,2.20
2018-11-21T17:17:56.949Z,2.17
2018-11-21T17:20:30.560Z,2.09
2018-11-21T17:23:00.263Z,2.11
2018-11-21T17:25:30.691Z,2.14
2018-11-21T17:27:59.259Z,2.13
2018-11-21T17:30:28.063Z,1.99
2018-11-21T17:32:56.637Z,2.03
2018-11-21T17:35:25.443Z,2.07
2018-11-21T17:37:54.947Z,2.02
2018-11-21T17:40:29.300Z,1.91
2018-11-21T17:42:58.491Z,1.86
2018-11-21T17:45:27.005Z,1.88
2018-11-21T17:47:55.522Z,2.01
2018-11-21T17:50:25.201Z,1.92
2018-11-21T17:52:55.619Z,1.89
2018-11-21T17:55:25.929Z,1.88
2018-11-21T17:57:54.408Z,2.10
2018-11-21T18:00:24.446Z,2.14
2018-11-21T18:02:52.904Z,2.20
2018-11-21T18:05:23.260Z,2.37
2018-11-21T18:07:51.769Z,2.38
2018-11-21T18:10:22.214Z,2.37
2018-11-21T18:12:50.735Z,2.41
2018-11-21T18:15:19.837Z,2.47
2018-11-21T18:17:49.155Z,2.42
2018-11-21T18:20:18.463Z,2.43
2018-11-21T18:22:47.857Z,2.43
2018-11-21T18:25:17.976Z,2.46
2018-11-21T18:27:46.517Z,2.53
2018-11-21T18:30:17.040Z,2.55
2018-11-21T18:32:47.048Z,2.57
2018-11-21T18:35:17.540Z,2.54
2018-11-21T18:37:46.881Z,2.52
2018-11-21T18:40:22.543Z,2.41
2018-11-21T18:42:51.645Z,2.34
2018-11-21T18:45:22.922Z,2.27
2018-11-21T18:47:52.317Z,2.16
2018-11-21T18:50:21.451Z,2.10
2018-11-21T18:52:51.937Z,2.11
2018-11-21T18:55:22.595Z,2.03
2018-11-21T18:58:18.224Z,1.95
2018-11-21T19:00:51.792Z,1.81
